SXS3360 KTUS-KLAX
Flight info
| Callsign | SXS3360 |
|---|---|
| Flight time | 1h 15m |
| Altitude | 30000 |
| Route | WLDKT4 GBN J104 WLVRN ESTWD HLYWD1 |
| Aircraft | B738/M-SDE2E3FGHIRWXY/LB1 |
Departure
| Time | 2026-04-25 05:00 |
|---|---|
| Airport | Tucson International Airport (KTUS) |
Arrival
| Time | 2026-04-25 06:15 |
|---|---|
| Airport | Los Angeles International Airport (KLAX) |
| Time | Latitude | Longitude | Altitude | Speed | Heading |
|---|---|---|---|---|---|
| 2026-04-25 04:38 | 32.11869 | -110.93655 | 2608 ft | 0 kts | 331° |
| 2026-04-25 04:45 | 32.11859 | -110.93645 | 2609 ft | 2 kts | 323° |
| 2026-04-25 04:45 | 32.11846 | -110.93637 | 2609 ft | 1 kts | 334° |
| 2026-04-25 04:46 | 32.11837 | -110.93632 | 2609 ft | 2 kts | 321° |
| 2026-04-25 04:46 | 32.11828 | -110.93618 | 2609 ft | 2 kts | 294° |
| 2026-04-25 04:46 | 32.11825 | -110.93600 | 2610 ft | 2 kts | 268° |
| 2026-04-25 04:46 | 32.11828 | -110.93584 | 2609 ft | 2 kts | 243° |
| 2026-04-25 04:47 | 32.11834 | -110.93574 | 2609 ft | 0 kts | 226° |
| 2026-04-25 04:47 | 32.11839 | -110.93568 | 2609 ft | 0 kts | 224° |
| 2026-04-25 04:52 | 32.11817 | -110.93591 | 2610 ft | 10 kts | 221° |
| 2026-04-25 04:52 | 32.11763 | -110.93649 | 2611 ft | 11 kts | 224° |
| 2026-04-25 04:53 | 32.11719 | -110.93687 | 2611 ft | 0 kts | 205° |
| 2026-04-25 04:53 | 32.11704 | -110.93687 | 2611 ft | 6 kts | 163° |
| 2026-04-25 04:53 | 32.11647 | -110.93694 | 2612 ft | 8 kts | 200° |
| 2026-04-25 04:54 | 32.11576 | -110.93655 | 2614 ft | 17 kts | 135° |
| 2026-04-25 04:54 | 32.11478 | -110.93541 | 2618 ft | 19 kts | 135° |
| 2026-04-25 04:54 | 32.11387 | -110.93436 | 2620 ft | 17 kts | 136° |
| 2026-04-25 04:54 | 32.11302 | -110.93336 | 2623 ft | 16 kts | 135° |
| 2026-04-25 04:55 | 32.11224 | -110.93246 | 2624 ft | 15 kts | 135° |
| 2026-04-25 04:55 | 32.11153 | -110.93160 | 2626 ft | 14 kts | 133° |
| 2026-04-25 04:55 | 32.11089 | -110.93085 | 2629 ft | 11 kts | 136° |
| 2026-04-25 04:55 | 32.11012 | -110.92995 | 2632 ft | 24 kts | 135° |
| 2026-04-25 04:56 | 32.10843 | -110.92810 | 2636 ft | 36 kts | 140° |
| 2026-04-25 04:56 | 32.10682 | -110.92601 | 2644 ft | 33 kts | 134° |
| 2026-04-25 04:56 | 32.10560 | -110.92460 | 2649 ft | 8 kts | 136° |
| 2026-04-25 04:56 | 32.10494 | -110.92386 | 2650 ft | 18 kts | 136° |
| 2026-04-25 04:57 | 32.10387 | -110.92263 | 2654 ft | 21 kts | 135° |
| 2026-04-25 04:57 | 32.10321 | -110.92243 | 2655 ft | 10 kts | 218° |
| 2026-04-25 04:57 | 32.10313 | -110.92252 | 2655 ft | 0 kts | 222° |
| 2026-04-25 04:58 | 32.10278 | -110.92290 | 2653 ft | 15 kts | 223° |
| 2026-04-25 04:58 | 32.10281 | -110.92380 | 2652 ft | 0 kts | 313° |
| 2026-04-25 04:59 | 32.10430 | -110.92556 | 2646 ft | 75 kts | 312° |
| 2026-04-25 04:59 | 32.11006 | -110.93227 | 2628 ft | 154 kts | 314° |
| 2026-04-25 04:59 | 32.11871 | -110.94239 | 2992 ft | 188 kts | 313° |
| 2026-04-25 05:00 | 32.12851 | -110.95298 | 3953 ft | 196 kts | 314° |
| 2026-04-25 05:00 | 32.13835 | -110.96316 | 4881 ft | 200 kts | 312° |
| 2026-04-25 05:00 | 32.14807 | -110.97554 | 5584 ft | 214 kts | 307° |
| 2026-04-25 05:00 | 32.15847 | -110.98904 | 6264 ft | 232 kts | 309° |
| 2026-04-25 05:01 | 32.17008 | -111.00316 | 6932 ft | 252 kts | 311° |
| 2026-04-25 05:01 | 32.18280 | -111.01811 | 7805 ft | 264 kts | 311° |
| 2026-04-25 05:01 | 32.19605 | -111.03362 | 8613 ft | 279 kts | 311° |
| 2026-04-25 05:01 | 32.20996 | -111.05003 | 9476 ft | 290 kts | 310° |
| 2026-04-25 05:02 | 32.22242 | -111.06833 | 10510 ft | 290 kts | 298° |
| 2026-04-25 05:02 | 32.22968 | -111.09083 | 11301 ft | 299 kts | 279° |
| 2026-04-25 05:02 | 32.23311 | -111.11520 | 12087 ft | 311 kts | 276° |
| 2026-04-25 05:02 | 32.23607 | -111.14092 | 12844 ft | 326 kts | 276° |
| 2026-04-25 05:03 | 32.23939 | -111.16786 | 13771 ft | 335 kts | 277° |
| 2026-04-25 05:03 | 32.24307 | -111.19488 | 14899 ft | 337 kts | 277° |
| 2026-04-25 05:03 | 32.24697 | -111.22201 | 15998 ft | 340 kts | 278° |
| 2026-04-25 05:03 | 32.25096 | -111.24928 | 17050 ft | 343 kts | 278° |
| 2026-04-25 05:04 | 32.25504 | -111.27713 | 18020 ft | 347 kts | 278° |
| 2026-04-25 05:04 | 32.25912 | -111.30506 | 19091 ft | 348 kts | 278° |
| 2026-04-25 05:04 | 32.26320 | -111.33312 | 20077 ft | 350 kts | 278° |
| 2026-04-25 05:04 | 32.26728 | -111.36121 | 21000 ft | 353 kts | 277° |
| 2026-04-25 05:05 | 32.27142 | -111.38984 | 21962 ft | 355 kts | 278° |
| 2026-04-25 05:05 | 32.27566 | -111.41851 | 22801 ft | 358 kts | 278° |
| 2026-04-25 05:05 | 32.28129 | -111.44705 | 23664 ft | 362 kts | 283° |
| 2026-04-25 05:05 | 32.29050 | -111.47512 | 24480 ft | 368 kts | 291° |
| 2026-04-25 05:06 | 32.29649 | -111.48859 | 24815 ft | 373 kts | 294° |
| 2026-04-25 05:06 | 32.30056 | -111.49690 | 25059 ft | 374 kts | 296° |
| 2026-04-25 05:06 | 32.31454 | -111.52299 | 25839 ft | 378 kts | 298° |
| 2026-04-25 05:06 | 32.32916 | -111.54848 | 26757 ft | 376 kts | 298° |
| 2026-04-25 05:07 | 32.34375 | -111.57339 | 27944 ft | 365 kts | 298° |
| 2026-04-25 05:07 | 32.35801 | -111.59782 | 28833 ft | 361 kts | 298° |
| 2026-04-25 05:07 | 32.36340 | -111.60713 | 29144 ft | 360 kts | 298° |
| 2026-04-25 05:07 | 32.36897 | -111.61679 | 29446 ft | 359 kts | 298° |
| 2026-04-25 05:08 | 32.38310 | -111.64150 | 29837 ft | 362 kts | 297° |
| 2026-04-25 05:08 | 32.41094 | -111.69063 | 29900 ft | 356 kts | 297° |
| 2026-04-25 05:09 | 32.43835 | -111.73935 | 29893 ft | 356 kts | 297° |
| 2026-04-25 05:09 | 32.46574 | -111.78822 | 29892 ft | 357 kts | 296° |
| 2026-04-25 05:10 | 32.49303 | -111.83697 | 29881 ft | 356 kts | 297° |
| 2026-04-25 05:10 | 32.52041 | -111.88594 | 29880 ft | 354 kts | 297° |
| 2026-04-25 05:11 | 32.54767 | -111.93474 | 29877 ft | 356 kts | 297° |
| 2026-04-25 05:11 | 32.57476 | -111.98323 | 29877 ft | 355 kts | 297° |
| 2026-04-25 05:12 | 32.61558 | -112.05653 | 29876 ft | 354 kts | 297° |
| 2026-04-25 05:12 | 32.64285 | -112.10561 | 29876 ft | 355 kts | 297° |
| 2026-04-25 05:13 | 32.66983 | -112.15421 | 29872 ft | 355 kts | 297° |
| 2026-04-25 05:13 | 32.69713 | -112.20344 | 29873 ft | 358 kts | 297° |
| 2026-04-25 05:14 | 32.72432 | -112.25251 | 29873 ft | 356 kts | 297° |
| 2026-04-25 05:15 | 32.76495 | -112.32596 | 29878 ft | 355 kts | 297° |
| 2026-04-25 05:15 | 32.79209 | -112.37511 | 29874 ft | 356 kts | 297° |
| 2026-04-25 05:16 | 32.81939 | -112.42463 | 29877 ft | 356 kts | 296° |
| 2026-04-25 05:16 | 32.84645 | -112.47377 | 29872 ft | 355 kts | 297° |
| 2026-04-25 05:17 | 32.87340 | -112.52278 | 29866 ft | 356 kts | 296° |
| 2026-04-25 05:17 | 32.90048 | -112.57206 | 29846 ft | 356 kts | 296° |
| 2026-04-25 05:18 | 32.92767 | -112.62164 | 29833 ft | 357 kts | 296° |
| 2026-04-25 05:18 | 32.95515 | -112.67078 | 29827 ft | 357 kts | 299° |
| 2026-04-25 05:19 | 32.98715 | -112.71648 | 29822 ft | 362 kts | 304° |
| 2026-04-25 05:19 | 33.02167 | -112.76132 | 29820 ft | 365 kts | 305° |
| 2026-04-25 05:20 | 33.05584 | -112.80579 | 29815 ft | 365 kts | 304° |
| 2026-04-25 05:20 | 33.08988 | -112.85050 | 29804 ft | 364 kts | 304° |
| 2026-04-25 05:21 | 33.12384 | -112.89535 | 29820 ft | 364 kts | 304° |
| 2026-04-25 05:21 | 33.15782 | -112.94041 | 29817 ft | 364 kts | 304° |
| 2026-04-25 05:22 | 33.19174 | -112.98547 | 29814 ft | 366 kts | 304° |
| 2026-04-25 05:22 | 33.22566 | -113.03060 | 29816 ft | 365 kts | 304° |
| 2026-04-25 05:22 | 33.24298 | -113.05371 | 29825 ft | 377 kts | 304° |
| 2026-04-25 05:23 | 33.26063 | -113.07738 | 29822 ft | 392 kts | 304° |
| 2026-04-25 05:23 | 33.27916 | -113.10226 | 29832 ft | 407 kts | 305° |
| 2026-04-25 05:23 | 33.29846 | -113.12814 | 29834 ft | 421 kts | 305° |
| 2026-04-25 05:24 | 33.33781 | -113.18061 | 29827 ft | 424 kts | 305° |
| 2026-04-25 05:24 | 33.37724 | -113.23305 | 29834 ft | 424 kts | 305° |
| 2026-04-25 05:25 | 33.41664 | -113.28559 | 29827 ft | 425 kts | 305° |
| 2026-04-25 05:25 | 33.45595 | -113.33823 | 29835 ft | 423 kts | 305° |
| 2026-04-25 05:26 | 33.49549 | -113.39131 | 29842 ft | 426 kts | 305° |
| 2026-04-25 05:26 | 33.53465 | -113.44392 | 29854 ft | 424 kts | 305° |
| 2026-04-25 05:27 | 33.57418 | -113.49717 | 29858 ft | 426 kts | 305° |
| 2026-04-25 05:27 | 33.61356 | -113.55028 | 29854 ft | 425 kts | 305° |
| 2026-04-25 05:28 | 33.65283 | -113.60336 | 29857 ft | 427 kts | 305° |
| 2026-04-25 05:28 | 33.69225 | -113.65672 | 29844 ft | 428 kts | 304° |
| 2026-04-25 05:29 | 33.73192 | -113.71046 | 29830 ft | 426 kts | 304° |
| 2026-04-25 05:29 | 33.77112 | -113.76364 | 29829 ft | 427 kts | 304° |
| 2026-04-25 05:30 | 33.80970 | -113.81783 | 29829 ft | 421 kts | 299° |
| 2026-04-25 05:30 | 33.83437 | -113.88035 | 29822 ft | 413 kts | 285° |
| 2026-04-25 05:31 | 33.85276 | -113.94610 | 29821 ft | 413 kts | 285° |
| 2026-04-25 05:31 | 33.87201 | -114.01103 | 29815 ft | 413 kts | 286° |
| 2026-04-25 05:32 | 33.89269 | -114.07539 | 29804 ft | 414 kts | 287° |
| 2026-04-25 05:32 | 33.91018 | -114.14114 | 29801 ft | 410 kts | 281° |
| 2026-04-25 05:33 | 33.92229 | -114.20817 | 29792 ft | 410 kts | 278° |
| 2026-04-25 05:33 | 33.93332 | -114.27534 | 29780 ft | 411 kts | 278° |
| 2026-04-25 05:34 | 33.94442 | -114.34276 | 29778 ft | 411 kts | 278° |
| 2026-04-25 05:34 | 33.95563 | -114.41019 | 29778 ft | 410 kts | 279° |
| 2026-04-25 05:35 | 33.96690 | -114.47761 | 29775 ft | 411 kts | 279° |
| 2026-04-25 05:35 | 33.97815 | -114.54502 | 29774 ft | 411 kts | 278° |
| 2026-04-25 05:36 | 33.98936 | -114.61231 | 29772 ft | 410 kts | 278° |
| 2026-04-25 05:36 | 34.00056 | -114.67972 | 29782 ft | 411 kts | 278° |
| 2026-04-25 05:37 | 34.01179 | -114.74758 | 29778 ft | 412 kts | 278° |
| 2026-04-25 05:37 | 34.02293 | -114.81507 | 29778 ft | 412 kts | 278° |
| 2026-04-25 05:38 | 34.03404 | -114.88264 | 29783 ft | 412 kts | 278° |
| 2026-04-25 05:38 | 34.04512 | -114.95033 | 29791 ft | 412 kts | 278° |
| 2026-04-25 05:39 | 34.05618 | -115.01807 | 29784 ft | 411 kts | 278° |
| 2026-04-25 05:39 | 34.06720 | -115.08569 | 29785 ft | 411 kts | 278° |
| 2026-04-25 05:40 | 34.07824 | -115.15356 | 29797 ft | 413 kts | 279° |
| 2026-04-25 05:40 | 34.08921 | -115.22120 | 29802 ft | 411 kts | 278° |
| 2026-04-25 05:41 | 34.10010 | -115.28869 | 29807 ft | 412 kts | 278° |
| 2026-04-25 05:41 | 34.11097 | -115.35640 | 29817 ft | 413 kts | 279° |
| 2026-04-25 05:42 | 34.12183 | -115.42423 | 29821 ft | 411 kts | 278° |
| 2026-04-25 05:42 | 34.13233 | -115.48963 | 29818 ft | 380 kts | 278° |
| 2026-04-25 05:42 | 34.13722 | -115.52008 | 29831 ft | 360 kts | 278° |
| 2026-04-25 05:43 | 34.14185 | -115.54902 | 29833 ft | 347 kts | 278° |
| 2026-04-25 05:43 | 34.15094 | -115.60669 | 29841 ft | 351 kts | 278° |
| 2026-04-25 05:44 | 34.15953 | -115.66503 | 29851 ft | 351 kts | 275° |
| 2026-04-25 05:44 | 34.16075 | -115.72358 | 29862 ft | 348 kts | 265° |
| 2026-04-25 05:45 | 34.15754 | -115.76251 | 29870 ft | 349 kts | 263° |
| 2026-04-25 05:45 | 34.15483 | -115.78918 | 29864 ft | 349 kts | 263° |
| 2026-04-25 05:46 | 34.14885 | -115.84732 | 29860 ft | 349 kts | 263° |
| 2026-04-25 05:46 | 34.14302 | -115.90556 | 29865 ft | 349 kts | 263° |
| 2026-04-25 05:47 | 34.13727 | -115.96397 | 29870 ft | 349 kts | 263° |
| 2026-04-25 05:47 | 34.13156 | -116.02216 | 29881 ft | 349 kts | 263° |
| 2026-04-25 05:48 | 34.12589 | -116.08002 | 29897 ft | 347 kts | 263° |
| 2026-04-25 05:48 | 34.12015 | -116.13827 | 29914 ft | 351 kts | 263° |
| 2026-04-25 05:49 | 34.11436 | -116.19678 | 29927 ft | 349 kts | 263° |
| 2026-04-25 05:49 | 34.10858 | -116.25494 | 29921 ft | 348 kts | 263° |
| 2026-04-25 05:50 | 34.10272 | -116.31351 | 29931 ft | 350 kts | 263° |
| 2026-04-25 05:50 | 34.09692 | -116.36813 | 29921 ft | 351 kts | 263° |
| 2026-04-25 05:51 | 34.09198 | -116.41393 | 29880 ft | 337 kts | 263° |
| 2026-04-25 05:51 | 34.08902 | -116.44147 | 29688 ft | 330 kts | 263° |
| 2026-04-25 05:51 | 34.08597 | -116.46967 | 29395 ft | 343 kts | 263° |
| 2026-04-25 05:51 | 34.08288 | -116.49820 | 28961 ft | 344 kts | 263° |
| 2026-04-25 05:52 | 34.07979 | -116.52669 | 28531 ft | 337 kts | 263° |
| 2026-04-25 05:52 | 34.07683 | -116.55405 | 28125 ft | 330 kts | 263° |
| 2026-04-25 05:52 | 34.07385 | -116.58154 | 27711 ft | 329 kts | 263° |
| 2026-04-25 05:52 | 34.07104 | -116.60864 | 27292 ft | 334 kts | 264° |
| 2026-04-25 05:53 | 34.06839 | -116.63676 | 26861 ft | 331 kts | 264° |
| 2026-04-25 05:53 | 34.06594 | -116.66392 | 26456 ft | 324 kts | 264° |
| 2026-04-25 05:53 | 34.06354 | -116.69051 | 26057 ft | 319 kts | 263° |
| 2026-04-25 05:53 | 34.06109 | -116.71756 | 25636 ft | 324 kts | 263° |
| 2026-04-25 05:54 | 34.05863 | -116.74439 | 25219 ft | 326 kts | 264° |
| 2026-04-25 05:54 | 34.05611 | -116.77151 | 24808 ft | 322 kts | 264° |
| 2026-04-25 05:54 | 34.05121 | -116.82380 | 24001 ft | 312 kts | 263° |
| 2026-04-25 05:55 | 34.04875 | -116.84988 | 23598 ft | 317 kts | 264° |
| 2026-04-25 05:55 | 34.04626 | -116.87640 | 23177 ft | 317 kts | 263° |
| 2026-04-25 05:55 | 34.04363 | -116.90232 | 22769 ft | 311 kts | 263° |
| 2026-04-25 05:55 | 34.04044 | -116.92815 | 22364 ft | 306 kts | 261° |
| 2026-04-25 05:56 | 34.03705 | -116.95346 | 21965 ft | 312 kts | 261° |
| 2026-04-25 05:56 | 34.03356 | -116.97925 | 21562 ft | 312 kts | 261° |
| 2026-04-25 05:56 | 34.03013 | -117.00487 | 21152 ft | 307 kts | 262° |
| 2026-04-25 05:56 | 34.02681 | -117.03003 | 20756 ft | 302 kts | 262° |
| 2026-04-25 05:57 | 34.02366 | -117.05506 | 20353 ft | 307 kts | 262° |
| 2026-04-25 05:57 | 34.02061 | -117.08076 | 19949 ft | 307 kts | 262° |
| 2026-04-25 05:57 | 34.01770 | -117.10572 | 19562 ft | 301 kts | 262° |
| 2026-04-25 05:57 | 34.01479 | -117.13056 | 19171 ft | 300 kts | 262° |
| 2026-04-25 05:58 | 34.01182 | -117.15579 | 18775 ft | 305 kts | 262° |
| 2026-04-25 05:58 | 34.00883 | -117.18102 | 18360 ft | 303 kts | 262° |
| 2026-04-25 05:58 | 34.00590 | -117.20567 | 17971 ft | 298 kts | 262° |
| 2026-04-25 05:58 | 34.00297 | -117.23033 | 17609 ft | 294 kts | 262° |
| 2026-04-25 05:59 | 34.00004 | -117.25484 | 17248 ft | 300 kts | 262° |
| 2026-04-25 05:59 | 33.99709 | -117.27949 | 16844 ft | 297 kts | 262° |
| 2026-04-25 05:59 | 33.99411 | -117.30425 | 16405 ft | 293 kts | 262° |
| 2026-04-25 05:59 | 33.99127 | -117.32812 | 16017 ft | 289 kts | 262° |
| 2026-04-25 06:00 | 33.98846 | -117.35204 | 15639 ft | 290 kts | 262° |
| 2026-04-25 06:00 | 33.98562 | -117.37619 | 15246 ft | 295 kts | 262° |
| 2026-04-25 06:00 | 33.98275 | -117.40067 | 14858 ft | 290 kts | 262° |
| 2026-04-25 06:00 | 33.97999 | -117.42416 | 14469 ft | 286 kts | 262° |
| 2026-04-25 06:01 | 33.97721 | -117.44776 | 14084 ft | 281 kts | 262° |
| 2026-04-25 06:01 | 33.97446 | -117.47099 | 13711 ft | 285 kts | 262° |
| 2026-04-25 06:01 | 33.97163 | -117.49483 | 13335 ft | 287 kts | 262° |
| 2026-04-25 06:01 | 33.96881 | -117.51870 | 12948 ft | 283 kts | 263° |
| 2026-04-25 06:02 | 33.96610 | -117.54179 | 12564 ft | 279 kts | 262° |
| 2026-04-25 06:02 | 33.96336 | -117.56505 | 12188 ft | 285 kts | 262° |
| 2026-04-25 06:02 | 33.96061 | -117.58841 | 11799 ft | 283 kts | 262° |
| 2026-04-25 06:02 | 33.95785 | -117.61181 | 11435 ft | 278 kts | 262° |
| 2026-04-25 06:03 | 33.95517 | -117.63451 | 11072 ft | 275 kts | 262° |
| 2026-04-25 06:03 | 33.95243 | -117.65765 | 10971 ft | 279 kts | 261° |
| 2026-04-25 06:03 | 33.94974 | -117.68057 | 10966 ft | 276 kts | 262° |
| 2026-04-25 06:03 | 33.94736 | -117.70341 | 10967 ft | 272 kts | 263° |
| 2026-04-25 06:04 | 33.94527 | -117.72565 | 10968 ft | 267 kts | 263° |
| 2026-04-25 06:04 | 33.94323 | -117.74761 | 10958 ft | 262 kts | 263° |
| 2026-04-25 06:04 | 33.94116 | -117.76954 | 10578 ft | 265 kts | 263° |
| 2026-04-25 06:04 | 33.93905 | -117.79166 | 9954 ft | 272 kts | 263° |
| 2026-04-25 06:05 | 33.93686 | -117.81458 | 9293 ft | 277 kts | 263° |
| 2026-04-25 06:05 | 33.93465 | -117.83732 | 8646 ft | 278 kts | 263° |
| 2026-04-25 06:05 | 33.93238 | -117.86056 | 8036 ft | 277 kts | 263° |
| 2026-04-25 06:05 | 33.93017 | -117.88326 | 7585 ft | 271 kts | 263° |
| 2026-04-25 06:06 | 33.92800 | -117.90554 | 7262 ft | 265 kts | 263° |
| 2026-04-25 06:06 | 33.92598 | -117.92683 | 7060 ft | 252 kts | 264° |
| 2026-04-25 06:06 | 33.92412 | -117.94737 | 6919 ft | 239 kts | 265° |
| 2026-04-25 06:06 | 33.92469 | -117.96690 | 6760 ft | 227 kts | 282° |
| 2026-04-25 06:07 | 33.93111 | -117.98352 | 6581 ft | 219 kts | 302° |
| 2026-04-25 06:07 | 33.93974 | -117.99846 | 6351 ft | 212 kts | 304° |
| 2026-04-25 06:07 | 33.94784 | -118.01289 | 6106 ft | 205 kts | 302° |
| 2026-04-25 06:07 | 33.95547 | -118.02724 | 5887 ft | 199 kts | 301° |
| 2026-04-25 06:08 | 33.96265 | -118.04105 | 5694 ft | 191 kts | 301° |
| 2026-04-25 06:08 | 33.96808 | -118.05529 | 5485 ft | 185 kts | 283° |
| 2026-04-25 06:08 | 33.96897 | -118.07056 | 5100 ft | 190 kts | 270° |
| 2026-04-25 06:08 | 33.96790 | -118.08659 | 4762 ft | 190 kts | 263° |
| 2026-04-25 06:09 | 33.96622 | -118.10220 | 4523 ft | 186 kts | 263° |
| 2026-04-25 06:09 | 33.96464 | -118.11728 | 4291 ft | 180 kts | 262° |
| 2026-04-25 06:09 | 33.96305 | -118.13177 | 4081 ft | 173 kts | 262° |
| 2026-04-25 06:09 | 33.96146 | -118.14593 | 3870 ft | 166 kts | 262° |
| 2026-04-25 06:10 | 33.96000 | -118.15937 | 3662 ft | 160 kts | 264° |
| 2026-04-25 06:10 | 33.95922 | -118.17255 | 3452 ft | 155 kts | 266° |
| 2026-04-25 06:10 | 33.95821 | -118.18539 | 3246 ft | 154 kts | 263° |
| 2026-04-25 06:10 | 33.95687 | -118.19807 | 3045 ft | 152 kts | 262° |
| 2026-04-25 06:11 | 33.95546 | -118.21072 | 2840 ft | 154 kts | 262° |
| 2026-04-25 06:11 | 33.95404 | -118.22337 | 2639 ft | 151 kts | 262° |
| 2026-04-25 06:11 | 33.95264 | -118.23586 | 2440 ft | 148 kts | 262° |
| 2026-04-25 06:11 | 33.95127 | -118.24805 | 2254 ft | 150 kts | 261° |
| 2026-04-25 06:12 | 33.94987 | -118.26055 | 2054 ft | 146 kts | 261° |
| 2026-04-25 06:12 | 33.94873 | -118.27253 | 1931 ft | 144 kts | 265° |
| 2026-04-25 06:12 | 33.94822 | -118.28464 | 1939 ft | 146 kts | 265° |
| 2026-04-25 06:12 | 33.94702 | -118.29688 | 1846 ft | 146 kts | 259° |
| 2026-04-25 06:13 | 33.94518 | -118.30859 | 1662 ft | 142 kts | 257° |
| 2026-04-25 06:13 | 33.94339 | -118.32007 | 1410 ft | 138 kts | 259° |
| 2026-04-25 06:13 | 33.94223 | -118.33147 | 1284 ft | 137 kts | 264° |
| 2026-04-25 06:14 | 33.94006 | -118.35567 | 1002 ft | 157 kts | 262° |
| 2026-04-25 06:14 | 33.93877 | -118.36855 | 663 ft | 153 kts | 264° |
| 2026-04-25 06:14 | 33.93765 | -118.38099 | 286 ft | 150 kts | 259° |
| 2026-04-25 06:14 | 33.93621 | -118.39345 | 120 ft | 144 kts | 262° |
| 2026-04-25 06:15 | 33.93558 | -118.39932 | 115 ft | 0 kts | 264° |
| 2026-04-25 06:15 | 33.93553 | -118.39981 | 116 ft | 14 kts | 262° |
| 2026-04-25 06:15 | 33.93534 | -118.40096 | 118 ft | 2 kts | 256° |